Adams, Oregon
Current Conditions -  °F | °C
As of 5:53 AM on Thursday 30 Oct 2014 (Local Time) from KPDT Reporting Station
Overcast Overcast  
Wind Chill: 50°   Ceiling: 9000
Heat Index: 50°   Visibility: 10mi
Dew Point: 46°   Wind: 8mph
Humidity: 86%   Direction: 300°WNW
Pressure: 30.04"   Gusts: NA
Location:  45.77°N, 118.56°W
Report Text: KPDT 301253Z AUTO 30007KT 10SM OVC090 10/08 A3004 RMK AO2 SLP168 T01000078
Loading
Personal Weather Stations






























Interactive Weather Map New forecast layout! Learn more

10-Day Weather Forecast

Advertisements
Track Severe Weather on mobile